Accueil
METAR-TAF:

METAR-TAF

Aéroports :

Aéroport de Cannes - Mandelieu

Cannes, France

latitude: 43-33N, longitude: 006-57E, altitude: 3 m

Observation

Le bulletin a été fait il y a 23 minutes, à 19:30 UTC
Vent 3 kt de direction variable
Température 16°C
Humidité 82%
Pression 1021 hPa
Visibilité 10 km ou plus
pas de nuages en-dessous de 1500 mètres et pas de cumulonimbus.

METAR: LFMD 201930Z AUTO VRB03KT CAVOK 16/13 Q1021 NOSIG

Heure: 21:53 (19:53 UTC)

Prévision

Le bulletin a été fait il y a 5 heures et 53 minutes, à 14:00 UTC
Prévision valable du 20 à 15 UTC au 21 à 15 UTC
Vent 3 kt de direction variable
Visibilité 10 km ou plus
pas de nuages en-dessous de 1500 mètres et pas de cumulonimbus.
Temporairement
du 21 à 12 UTC au 21 à 15 UTC
Vent 10 kt de sud

TAF: LFMD 201400Z 2015/2115 VRB03KT CAVOK TEMPO 2112/2115 18010KT

Observations et prévisions météorologiques de plus de 4000 aéroports (messages METAR et TAF).

Les stations disponibles sont représentées par des disques jaunes et rouges sur la carte.

Passer la souris dessus pour voir le nom de la station.

Cliquer dessus pour voir les observations et prévisions météorologiques.

Pour changer de carte: cliquez sur les boutons verts avec une croix noire pour zoomer, sur le bouton vert avec un tiret pour effectuer un zoom arrière, ou sur les flèches vertes pour les cartes adjacentes.


METAR-TAF: